Stateline, Nevada
Current Conditions -  °F | °C
As of 1:53 PM on Thursday 18 Dec 2014 (Local Time) from KTVL Reporting Station
Clear Clear  
Wind Chill: 42°   Ceiling: Unl
Heat Index: 45°   Visibility: 10mi
Dew Point: 25°   Wind: 6mph
Humidity: 46%   Direction: 170°S
Pressure: 30.11"   Gusts: NA
Location:  38.97°N, 119.94°W
Report Text: KTVL 182153Z AUTO 17005KT 10SM CLR 07/M04 A3011 RMK AO2 SLP180 T00721039
Loading
Personal Weather Stations






























Interactive Weather Map New forecast layout! Learn more

10-Day Weather Forecast

Advertisements
Track Severe Weather on mobile